TimeCDT,TemperatureF,Dew PointF,Humidity,Sea Level PressureIn,VisibilityMPH,Wind Direction,Wind SpeedMPH,Gust SpeedMPH,PrecipitationIn,Events,Conditions,WindDirDegrees,DateUTC
12:15 AM,48.4,32.0,53,29.95,10.0,South,9.2,-,N/A,,Clear,190,2012-10-11 05:15:00
12:55 AM,47.7,32.2,55,29.94,10.0,SSW,8.1,-,N/A,,Clear,200,2012-10-11 05:55:00
1:15 AM,47.5,32.0,55,29.95,10.0,SSW,5.8,-,N/A,,Clear,210,2012-10-11 06:15:00
1:55 AM,45.3,32.0,60,29.94,10.0,WSW,3.5,-,N/A,,Clear,250,2012-10-11 06:55:00
2:15 AM,44.8,32.0,61,29.94,10.0,SW,5.8,-,N/A,,Clear,230,2012-10-11 07:15:00
2:55 AM,43.2,32.0,65,29.93,10.0,Calm,Calm,-,N/A,,Clear,0,2012-10-11 07:55:00
3:15 AM,40.1,31.6,72,29.94,10.0,Calm,Calm,-,N/A,,Clear,0,2012-10-11 08:15:00
3:35 AM,38.1,30.7,75,29.94,10.0,WSW,3.5,-,N/A,,Clear,250,2012-10-11 08:35:00
3:55 AM,37.6,30.7,76,29.94,10.0,Calm,Calm,-,N/A,,Clear,0,2012-10-11 08:55:00
4:15 AM,37.4,31.1,78,29.95,10.0,Calm,Calm,-,N/A,,Clear,0,2012-10-11 09:15:00
4:35 AM,37.0,30.7,78,29.95,10.0,Calm,Calm,-,N/A,,Clear,0,2012-10-11 09:35:00
4:55 AM,34.9,31.1,86,29.97,10.0,WNW,4.6,-,N/A,,Clear,300,2012-10-11 09:55:00
5:15 AM,36.9,31.8,82,29.98,10.0,WNW,4.6,-,N/A,,Clear,290,2012-10-11 10:15:00
5:35 AM,38.8,32.7,79,29.99,10.0,WNW,4.6,-,N/A,,Clear,290,2012-10-11 10:35:00
5:55 AM,39.4,32.7,77,30.01,10.0,NNW,4.6,-,N/A,,Clear,330,2012-10-11 10:55:00
6:15 AM,41.7,32.9,71,30.02,10.0,North,6.9,-,N/A,,Clear,360,2012-10-11 11:15:00
6:35 AM,43.0,32.9,68,30.03,10.0,North,9.2,-,N/A,,Clear,360,2012-10-11 11:35:00
6:55 AM,43.3,32.5,66,30.04,10.0,North,9.2,-,N/A,,Clear,360,2012-10-11 11:55:00
7:15 AM,43.0,32.7,67,30.05,10.0,North,11.5,17.3,N/A,,Clear,10,2012-10-11 12:15:00
7:35 AM,42.8,32.2,66,30.07,10.0,NNE,11.5,18.4,N/A,,Clear,20,2012-10-11 12:35:00
7:55 AM,42.4,32.0,67,30.08,10.0,North,8.1,-,N/A,,Clear,10,2012-10-11 12:55:00
8:15 AM,42.1,32.0,67,30.08,10.0,NNE,12.7,17.3,N/A,,Clear,20,2012-10-11 13:15:00
8:35 AM,41.0,31.1,68,30.10,10.0,North,12.7,17.3,N/A,,Clear,10,2012-10-11 13:35:00
8:55 AM,40.5,31.1,69,30.11,10.0,North,9.2,-,N/A,,Clear,10,2012-10-11 13:55:00
9:15 AM,41.0,30.7,67,30.14,10.0,North,10.4,16.1,N/A,,Clear,10,2012-10-11 14:15:00
9:35 AM,41.2,30.4,65,30.14,10.0,North,15.0,23.0,N/A,,Clear,10,2012-10-11 14:35:00
9:55 AM,40.8,30.6,67,30.15,10.0,NNE,16.1,24.2,N/A,,Clear,20,2012-10-11 14:55:00
10:15 AM,40.5,30.7,68,30.17,10.0,North,16.1,24.2,N/A,,Clear,10,2012-10-11 15:15:00
10:35 AM,42.8,30.9,63,30.17,10.0,NNE,20.7,24.2,N/A,,Clear,20,2012-10-11 15:35:00
10:55 AM,43.0,30.7,62,30.18,10.0,NNE,18.4,26.5,N/A,,Clear,20,2012-10-11 15:55:00
11:15 AM,43.7,30.9,61,30.19,10.0,NNE,16.1,21.9,N/A,,Clear,20,2012-10-11 16:15:00
11:35 AM,45.3,30.7,57,30.21,10.0,North,15.0,26.5,N/A,,Clear,10,2012-10-11 16:35:00
11:55 AM,46.0,30.6,55,30.21,10.0,North,17.3,21.9,N/A,,Clear,10,2012-10-11 16:55:00
12:15 PM,47.1,30.9,53,30.21,10.0,NNE,15.0,20.7,N/A,,Clear,20,2012-10-11 17:15:00
12:55 PM,48.0,30.4,51,30.21,10.0,NNE,16.1,25.3,N/A,,Clear,20,2012-10-11 17:55:00
1:15 PM,49.1,30.0,48,30.22,10.0,NNE,16.1,24.2,N/A,,Clear,30,2012-10-11 18:15:00
1:35 PM,49.5,29.3,46,30.22,10.0,NNE,19.6,27.6,N/A,,Clear,20,2012-10-11 18:35:00
1:55 PM,47.5,28.2,47,30.21,10.0,NNE,20.7,26.5,N/A,,Clear,30,2012-10-11 18:55:00
2:15 PM,49.1,27.9,44,30.22,10.0,NE,20.7,26.5,N/A,,Clear,40,2012-10-11 19:15:00
2:35 PM,50.2,27.7,42,30.21,10.0,NE,18.4,24.2,N/A,,Clear,40,2012-10-11 19:35:00
2:55 PM,50.2,27.7,42,30.22,10.0,NNE,16.1,24.2,N/A,,Clear,20,2012-10-11 19:55:00
3:15 PM,51.1,27.1,40,30.22,10.0,NE,18.4,26.5,N/A,,Clear,40,2012-10-11 20:15:00
3:55 PM,51.4,26.6,38,30.21,10.0,NE,18.4,24.2,N/A,,Clear,40,2012-10-11 20:55:00
4:15 PM,50.7,25.7,38,30.22,10.0,NNE,19.6,24.2,N/A,,Clear,30,2012-10-11 21:15:00
5:15 PM,49.6,25.0,38,30.24,10.0,NE,15.0,23.0,N/A,,Clear,50,2012-10-11 22:15:00
5:35 PM,49.1,24.8,39,30.24,10.0,NE,17.3,20.7,N/A,,Clear,40,2012-10-11 22:35:00
5:55 PM,48.4,24.4,39,30.25,10.0,NE,16.1,-,N/A,,Clear,50,2012-10-11 22:55:00
6:35 PM,46.4,24.6,42,30.26,10.0,NE,12.7,-,N/A,,Clear,40,2012-10-11 23:35:00
6:55 PM,45.0,24.3,44,30.27,10.0,NE,10.4,-,N/A,,Clear,40,2012-10-11 23:55:00
7:15 PM,43.7,23.9,46,30.28,10.0,ENE,6.9,-,N/A,,Clear,60,2012-10-12 00:15:00
7:35 PM,41.7,24.3,50,30.28,10.0,NE,4.6,-,N/A,,Clear,50,2012-10-12 00:35:00
7:55 PM,39.4,23.9,54,30.29,10.0,ENE,4.6,-,N/A,,Clear,70,2012-10-12 00:55:00
8:15 PM,38.1,23.9,57,30.30,10.0,ENE,3.5,-,N/A,,Clear,70,2012-10-12 01:15:00
8:35 PM,36.9,23.9,59,30.31,10.0,ENE,4.6,-,N/A,,Clear,70,2012-10-12 01:35:00
8:55 PM,35.8,23.7,62,30.32,10.0,ENE,3.5,-,N/A,,Clear,70,2012-10-12 01:55:00
9:15 PM,35.1,23.9,64,30.31,10.0,East,5.8,-,N/A,,Clear,80,2012-10-12 02:15:00
9:35 PM,34.9,24.1,65,30.33,10.0,East,3.5,-,N/A,,Clear,80,2012-10-12 02:35:00
9:55 PM,34.5,24.4,67,30.34,10.0,East,4.6,-,N/A,,Clear,80,2012-10-12 02:55:00
10:55 PM,32.5,24.4,72,30.35,10.0,Calm,Calm,-,N/A,,Clear,0,2012-10-12 03:55:00
11:15 PM,33.3,24.4,70,30.35,10.0,Calm,Calm,-,N/A,,Clear,0,2012-10-12 04:15:00
11:35 PM,32.0,23.4,70,30.35,10.0,Calm,Calm,-,N/A,,Clear,0,2012-10-12 04:35:00
11:55 PM,30.4,23.0,74,30.35,10.0,Calm,Calm,-,N/A,,Clear,0,2012-10-12 04:55:00